Commit Graph

53 Commits

Author SHA1 Message Date
Dave Schuyler ee418ad4bb formatting 2003-10-28 00:42:02 +00:00
Mark Mine 02fc9f0250 New configs for seamless setup 2003-08-04 18:20:25 +00:00
David Rose 1e0d35082d accept MS-DOS end-of-line characters 2003-06-02 21:52:58 +00:00
David Rose 5fea988239 accept MS-DOS end-of-line characters 2003-06-02 21:39:11 +00:00
David Rose a16fe56c74 merge window_devel_2003_02_21 to trunk 2003-04-09 17:28:00 +00:00
David Rose bf10ae1386 remove hack (pushed up to ShowBase.py) 2003-03-17 22:39:25 +00:00
David Rose 9e75269627 insert hack to open window immediately 2003-03-17 22:14:01 +00:00
David Rose 4a521ba916 fix for multiple directories on ETC_PATH 2003-02-06 23:45:13 +00:00
Jon Parise d8f3f1c9e3 fix from Parise for ETC_PATH 2003-02-06 23:20:15 +00:00
David Rose ea59108287 new window code 2003-01-09 20:35:54 +00:00
David Rose a33194e89f move use_vfs to express 2002-08-06 15:10:17 +00:00
David Rose 03ae0c6f89 use vfs 2002-08-06 14:40:27 +00:00
David Rose 5037c9c9b4 move vfs to express 2002-08-06 13:39:32 +00:00
David Rose 177deb3d97 configurable clear color 2002-07-12 16:53:11 +00:00
David Rose a23a7572a2 rename out qp's 2002-04-10 18:08:06 +00:00
David Rose a38e063667 remove old scene graph code 2002-04-09 18:33:48 +00:00
Mark Mine 5f078e5eb0 added cave2 2002-04-04 21:49:18 +00:00
David Rose a7132f9cf4 pgraph tweaks, chancfg, modelpool 2002-03-13 02:11:00 +00:00
cxgeorge 9b5662b635 add cursor-visible 2002-03-07 05:36:47 +00:00
cxgeorge 4984d9b860 text reformatting 2001-12-19 04:29:06 +00:00
cxgeorge 0fe72c30db *** empty log message *** 2001-12-17 21:35:53 +00:00
cxgeorge b7857c9a34 frang cant spell vertical 2001-12-12 02:21:57 +00:00
David Rose b6d41dd8c8 rewrite cameras to use new lens interface 2001-12-06 02:07:37 +00:00
cxgeorge 2c68103c97 fix template whitespc parse issue 2001-11-17 00:00:30 +00:00
khillesl 710ec924bd Took out borders in a couple configurations. Added comments. 2001-08-21 18:20:47 +00:00
David Rose 3141f00890 tabs to spaces 2001-08-21 18:05:22 +00:00
David Rose 250eaf0c3a fix probable bug spotted from compiler warning 2001-08-09 17:55:37 +00:00
khillesl e7f042417a Fixed problems with setup_db vfov/hfov for left/right orientation.
Updated a couple window_db entries for use with model cave
2001-08-09 17:43:55 +00:00
khillesl 54b5a4d442 Added layout1x3 2001-08-07 18:03:11 +00:00
cxgeorge 2f0beaac8c configrc _db files 2001-08-03 20:59:14 +00:00
David Rose 9c6ec62e46 fix warnings in linux build 2001-08-02 20:07:57 +00:00
khillesl 65d37b8c1a Reduction of SGI specifics in window setups files. Also, vertical/horizontal
now corresponds to the actual output of the display device, not on the window.
E.g., for model cave, vfov is vertical in cave, horizontal on console.
2001-08-02 18:27:20 +00:00
khillesl 9d1b7d31d6 Display regions must now be setup into groups by using parenthesis in
window_db.  Also, changes in camera nodes results in events being thrown.
2001-07-03 19:15:58 +00:00
cxgeorge b8479388a7 remove pch 2001-06-08 23:56:30 +00:00
cxgeorge 12c754efd0 remove pch 2001-06-08 23:49:24 +00:00
cxgeorge 4f90af14ab use combined srcs 2001-06-06 02:47:17 +00:00
David Rose 28fffee547 pvector, pmap, etc. 2001-06-06 00:55:53 +00:00
cxgeorge b9cfee9877 add nopch toggle 2001-06-04 01:40:56 +00:00
cxgeorge fdfad035fb retain old includes 2001-06-02 01:40:52 +00:00
cxgeorge ccd2b31f85 use precomp hdrs 2001-06-01 00:54:36 +00:00
David Rose 2f4e207edb Update copyright header 2001-05-25 21:27:38 +00:00
David Rose fcb24f02ef remove tab characters 2001-05-25 15:56:49 +00:00
cxgeorge 765d469e85 switch cat->is_debug to cat.is_debug 2001-05-25 04:08:20 +00:00
cxgeorge efd47a12f1 add rotate_mat_normaxis 2001-05-02 00:05:13 +00:00
cxgeorge ccc8cfe9bf remove intel workaround 2001-05-01 00:27:18 +00:00
cxgeorge 97efde0fdc fix to mixed build types 2001-04-11 02:22:11 +00:00
cxgeorge 6ff07d74db support mixed INTEL/MSVC builds 2001-04-10 23:43:06 +00:00
David Rose 11d54502a2 *** empty log message *** 2001-04-04 21:53:05 +00:00
Cary Sandvig 00d4463ada *** empty log message *** 2001-01-11 01:47:34 +00:00
David Rose 231e357952 *** empty log message *** 2000-10-24 02:38:00 +00:00